Time;durP1;ratioP1;P1;durP2;ratioP2;P2;SDS_P1;SDS_P2;PMS_P1;PMS_P2;Temp;Humidity;BMP_temperature;BMP_pressure;BME280_temperature;BME280_humidity;BME280_pressure;Samples;Min_cycle;Max_cycle;Signal;HPM_P1;HPM_P2
2021/03/14 00:01:42;;;;;;;0.80;0.80;;;5.40;76.80;;;;;;5093583;28;20048;-81
2021/03/14 00:04:13;;;;;;;2.30;1.00;;;5.30;76.80;;;;;;5106321;28;20469;-81
2021/03/14 00:06:42;;;;;;;2.45;0.88;;;5.30;76.40;;;;;;5114829;28;20475;-80
2021/03/14 00:09:11;;;;;;;1.67;0.98;;;5.30;77.10;;;;;;5097488;28;20499;-81
2021/03/14 00:11:39;;;;;;;3.38;1.15;;;5.30;76.60;;;;;;5098525;28;20794;-78
2021/03/14 00:14:08;;;;;;;5.88;1.58;;;5.30;75.80;;;;;;5113910;28;20055;-79
2021/03/14 00:16:36;;;;;;;2.58;1.17;;;5.50;74.80;;;;;;5090417;28;20698;-79
2021/03/14 00:19:04;;;;;;;0.80;0.80;;;5.40;73.90;;;;;;5101290;28;20040;-80
2021/03/14 00:21:32;;;;;;;1.83;1.10;;;5.30;75.70;;;;;;5095238;28;20064;-80
2021/03/14 00:23:59;;;;;;;1.25;1.15;;;5.40;75.10;;;;;;5077970;28;20044;-82
2021/03/14 00:26:30;;;;;;;1.45;0.95;;;5.40;74.30;;;;;;5113580;28;20040;-81
2021/03/14 00:28:57;;;;;;;3.83;1.10;;;5.40;73.70;;;;;;5114922;28;20377;-79
2021/03/14 00:31:25;;;;;;;2.35;1.73;;;5.00;73.50;;;;;;5109777;28;20058;-79
2021/03/14 00:34:00;;;;;;;3.33;1.17;;;4.80;75.90;;;;;;5095041;28;20062;-79
2021/03/14 00:36:29;;;;;;;2.22;1.25;;;4.70;76.40;;;;;;5104040;28;20055;-80
2021/03/14 00:38:57;;;;;;;1.05;1.05;;;4.50;80.30;;;;;;5092319;28;20036;-80
2021/03/14 00:41:24;;;;;;;1.90;0.90;;;4.30;82.50;;;;;;5093569;28;20048;-81
2021/03/14 00:43:52;;;;;;;1.35;1.25;;;4.10;85.50;;;;;;5094525;28;20051;-80
2021/03/14 00:46:19;;;;;;;1.90;1.10;;;4.00;86.90;;;;;;5112994;28;20047;-79
2021/03/14 00:48:48;;;;;;;0.95;0.90;;;3.80;89.60;;;;;;5093259;28;20257;-81
2021/03/14 00:51:15;;;;;;;0.70;0.70;;;3.60;91.10;;;;;;5091574;28;20059;-78
2021/03/14 00:53:48;;;;;;;0.98;0.95;;;3.50;91.90;;;;;;5109815;28;20048;-80
2021/03/14 00:56:21;;;;;;;0.90;0.90;;;3.40;92.10;;;;;;5109150;28;20044;-80
2021/03/14 00:58:48;;;;;;;1.27;1.23;;;3.40;91.60;;;;;;5093309;28;20412;-81
2021/03/14 01:01:18;;;;;;;0.90;0.90;;;3.40;91.80;;;;;;5109473;28;20056;-79
2021/03/14 01:03:46;;;;;;;1.17;0.93;;;3.40;92.10;;;;;;5079570;28;20044;-79
2021/03/14 01:06:14;;;;;;;1.65;1.23;;;3.40;92.40;;;;;;5086326;28;20051;-79
2021/03/14 01:08:43;;;;;;;1.02;0.93;;;3.30;92.90;;;;;;5092606;28;20040;-79
2021/03/14 01:11:10;;;;;;;0.80;0.80;;;3.20;92.90;;;;;;5092129;28;20044;-80
2021/03/14 01:13:55;;;;;;;1.00;1.00;;;3.20;92.60;;;;;;5109158;28;20769;-81
2021/03/14 01:16:26;;;;;;;1.10;1.00;;;3.20;92.90;;;;;;5091895;28;20056;-79
2021/03/14 01:18:54;;;;;;;0.80;0.80;;;3.10;92.50;;;;;;5108874;28;20405;-79
2021/03/14 01:21:21;;;;;;;1.27;0.85;;;3.20;93.10;;;;;;5092782;28;20390;-79
2021/03/14 01:23:49;;;;;;;1.00;1.00;;;3.10;92.90;;;;;;5093280;28;20707;-80
2021/03/14 01:26:18;;;;;;;1.50;1.27;;;3.10;92.80;;;;;;5092994;28;20039;-81
2021/03/14 01:28:49;;;;;;;1.85;1.40;;;3.10;92.40;;;;;;5093360;28;20048;-80
2021/03/14 01:31:16;;;;;;;2.25;1.15;;;3.10;92.50;;;;;;5091935;28;20047;-79
2021/03/14 01:33:44;;;;;;;1.00;1.00;;;3.10;92.80;;;;;;5092045;28;20048;-80
2021/03/14 01:36:16;;;;;;;0.93;0.93;;;3.10;92.40;;;;;;5092148;28;20606;-79
2021/03/14 01:38:45;;;;;;;1.20;1.10;;;3.10;92.50;;;;;;5099845;28;20047;-80
2021/03/14 01:41:13;;;;;;;2.20;1.00;;;3.10;92.40;;;;;;5093396;28;20056;-79
2021/03/14 01:44:16;;;;;;;1.40;1.10;;;3.00;92.60;;;;;;5092005;28;20036;-81
2021/03/14 01:46:45;;;;;;;1.48;1.13;;;3.00;92.60;;;;;;5071609;28;20065;-78
2021/03/14 01:49:16;;;;;;;0.90;0.90;;;2.90;92.80;;;;;;5093183;28;20368;-79
2021/03/14 01:51:45;;;;;;;0.90;0.90;;;2.90;93.30;;;;;;5091224;28;20060;-79
2021/03/14 01:54:13;;;;;;;1.00;1.00;;;2.90;93.20;;;;;;5092443;28;20040;-79
2021/03/14 01:56:41;;;;;;;0.90;0.90;;;2.80;93.40;;;;;;5093034;28;20090;-80
2021/03/14 01:59:10;;;;;;;1.65;1.00;;;2.90;93.40;;;;;;5092641;28;20043;-80
2021/03/14 02:01:39;;;;;;;1.05;1.05;;;2.90;93.40;;;;;;5092573;28;20055;-80
2021/03/14 02:04:06;;;;;;;1.98;1.05;;;2.90;93.60;;;;;;5092302;28;20051;-79
2021/03/14 02:06:36;;;;;;;0.82;0.82;;;2.80;94.20;;;;;;5091153;28;20047;-80
2021/03/14 02:09:04;;;;;;;1.48;1.20;;;2.70;94.90;;;;;;5099471;28;20050;-79
2021/03/14 02:11:37;;;;;;;0.90;0.90;;;2.70;95.30;;;;;;5112633;28;20044;-79
2021/03/14 02:14:06;;;;;;;1.08;1.00;;;2.60;95.30;;;;;;5092447;28;20056;-78
2021/03/14 02:16:41;;;;;;;1.13;1.13;;;2.60;95.50;;;;;;5102695;28;20498;-79
2021/03/14 02:19:22;;;;;;;1.00;1.00;;;2.50;95.60;;;;;;5111243;28;20055;-80
2021/03/14 02:21:53;;;;;;;1.17;1.08;;;2.50;96.00;;;;;;5111604;28;20047;-78
2021/03/14 02:24:24;;;;;;;1.13;1.13;;;2.50;96.20;;;;;;5112819;28;20039;-80
2021/03/14 02:26:52;;;;;;;;;;;2.50;96.30;;;;;;5112572;28;20404;-79
2021/03/14 02:29:21;;;;;;;1.17;1.00;;;2.40;96.80;;;;;;5113001;28;19942;-79
2021/03/14 02:31:53;;;;;;;0.82;0.80;;;2.40;96.50;;;;;;5111654;28;20583;-80
2021/03/14 02:34:46;;;;;;;1.00;1.00;;;2.30;96.60;;;;;;5111516;28;20043;-80
2021/03/14 02:37:17;;;;;;;0.85;0.82;;;2.30;96.50;;;;;;5112770;28;20480;-80
2021/03/14 02:39:45;;;;;;;0.80;0.80;;;2.30;96.90;;;;;;5111384;28;20035;-80
2021/03/14 02:42:13;;;;;;;0.80;0.80;;;2.20;96.70;;;;;;5112333;28;20384;-79
2021/03/14 02:44:47;;;;;;;1.17;0.95;;;2.30;96.70;;;;;;5112347;28;20055;-81
2021/03/14 02:47:17;;;;;;;0.90;0.90;;;2.30;96.90;;;;;;5092061;28;20046;-81
2021/03/14 02:50:05;;;;;;;0.90;0.90;;;2.30;96.50;;;;;;5099053;28;20052;-81
2021/03/14 02:52:34;;;;;;;1.50;1.00;;;2.30;96.60;;;;;;5112697;28;20044;-80
2021/03/14 02:55:03;;;;;;;0.77;0.77;;;2.30;96.70;;;;;;5111579;28;20046;-81
2021/03/14 02:57:31;;;;;;;1.30;0.98;;;2.20;97.00;;;;;;5077647;28;20507;-78
2021/03/14 02:59:59;;;;;;;0.90;0.90;;;2.20;97.30;;;;;;5110943;28;20050;-80
2021/03/14 03:02:28;;;;;;;0.80;0.80;;;2.20;96.50;;;;;;5111977;28;20040;-81
2021/03/14 03:04:58;;;;;;;0.85;0.85;;;2.20;96.70;;;;;;5108568;28;20044;-82
2021/03/14 03:07:26;;;;;;;0.90;0.90;;;2.20;96.80;;;;;;5115002;28;20035;-81
2021/03/14 03:09:54;;;;;;;0.70;0.70;;;2.20;96.80;;;;;;5115846;28;20047;-80
2021/03/14 03:12:25;;;;;;;2.60;0.80;;;2.30;96.30;;;;;;5116166;28;20062;-81
2021/03/14 03:15:25;;;;;;;0.90;0.90;;;2.30;96.10;;;;;;5116251;28;20400;-80
2021/03/14 03:17:54;;;;;;;1.40;1.40;;;2.40;95.90;;;;;;5097501;28;20052;-79
2021/03/14 03:20:25;;;;;;;0.80;0.80;;;2.40;95.80;;;;;;5116142;28;20047;-80
2021/03/14 03:22:54;;;;;;;0.63;0.63;;;2.40;95.90;;;;;;5112152;28;20054;-80
2021/03/14 03:25:22;;;;;;;0.95;0.85;;;2.40;95.90;;;;;;5114320;28;20058;-80
2021/03/14 03:27:50;;;;;;;0.80;0.80;;;2.40;95.90;;;;;;5115245;28;20051;-80
2021/03/14 03:30:22;;;;;;;1.00;1.00;;;2.40;95.90;;;;;;5115872;28;20066;-80
2021/03/14 03:32:50;;;;;;;0.80;0.80;;;2.40;95.60;;;;;;5115266;28;20059;-80
2021/03/14 03:35:19;;;;;;;0.93;0.90;;;2.40;95.60;;;;;;5115395;28;20401;-78
2021/03/14 03:37:49;;;;;;;0.82;0.82;;;2.50;94.90;;;;;;5115763;28;20044;-81
2021/03/14 03:40:23;;;;;;;2.53;0.95;;;2.50;95.00;;;;;;5115425;28;20051;-80
2021/03/14 03:43:05;;;;;;;1.20;1.00;;;2.60;95.00;;;;;;5114366;28;20043;-80
2021/03/14 03:45:44;;;;;;;1.02;1.02;;;2.50;95.30;;;;;;5115910;28;20044;-80
2021/03/14 03:48:18;;;;;;;0.75;0.75;;;2.50;95.50;;;;;;5113002;28;20040;-79
2021/03/14 03:50:53;;;;;;;0.93;0.93;;;2.50;95.50;;;;;;5109358;28;20036;-81
2021/03/14 03:53:23;;;;;;;0.80;0.80;;;2.50;95.70;;;;;;5093298;28;20047;-80
2021/03/14 03:55:53;;;;;;;0.80;0.80;;;2.50;95.60;;;;;;5115216;28;20048;-80
2021/03/14 03:58:22;;;;;;;0.70;0.70;;;2.50;95.40;;;;;;5079864;28;20101;-80
2021/03/14 04:00:52;;;;;;;0.80;0.80;;;2.50;95.50;;;;;;5115215;28;20047;-81
2021/03/14 04:03:22;;;;;;;1.42;0.88;;;2.50;95.60;;;;;;5096300;28;20051;-79
2021/03/14 04:05:55;;;;;;;1.85;0.80;;;2.50;95.30;;;;;;5114616;28;20051;-80
2021/03/14 04:08:25;;;;;;;0.73;0.73;;;2.50;95.50;;;;;;5113532;28;20043;-79
2021/03/14 04:10:54;;;;;;;0.70;0.70;;;2.60;95.50;;;;;;5111764;28;20040;-79
2021/03/14 04:13:22;;;;;;;0.93;0.93;;;2.50;95.60;;;;;;5109491;28;20051;-80
2021/03/14 04:15:52;;;;;;;0.70;0.70;;;2.40;95.70;;;;;;5114420;28;20054;-79
2021/03/14 04:18:22;;;;;;;0.60;0.60;;;2.50;95.70;;;;;;5114845;28;20059;-80
2021/03/14 04:21:13;;;;;;;0.80;0.80;;;2.50;95.50;;;;;;5114303;28;20052;-79
2021/03/14 04:23:50;;;;;;;0.85;0.85;;;2.50;95.60;;;;;;5094129;28;20052;-83
2021/03/14 04:26:22;;;;;;;0.70;0.70;;;2.50;95.70;;;;;;5097115;28;20052;-80
2021/03/14 04:28:53;;;;;;;0.80;0.80;;;2.50;95.60;;;;;;5114122;28;20047;-81
2021/03/14 04:31:21;;;;;;;0.90;0.90;;;2.40;95.20;;;;;;5095630;28;20047;-82
2021/03/14 04:33:50;;;;;;;0.82;0.82;;;2.50;95.10;;;;;;5115001;28;20051;-83
2021/03/14 04:36:19;;;;;;;0.77;0.77;;;2.40;95.50;;;;;;5114145;28;20043;-84
2021/03/14 04:38:47;;;;;;;0.80;0.80;;;2.50;94.90;;;;;;5114430;28;20880;-82
2021/03/14 04:41:17;;;;;;;0.85;0.85;;;2.60;94.60;;;;;;5113873;28;20051;-83
2021/03/14 04:44:26;;;;;;;0.70;0.70;;;2.50;95.00;;;;;;5114459;28;20050;-83
2021/03/14 04:46:53;;;;;;;2.47;0.77;;;2.50;95.00;;;;;;5093850;28;20489;-83
2021/03/14 04:49:21;;;;;;;0.75;0.75;;;2.50;94.80;;;;;;5104386;28;20423;-82
2021/03/14 04:51:49;;;;;;;0.70;0.70;;;2.50;94.90;;;;;;5113873;28;20036;-82
2021/03/14 04:54:17;;;;;;;0.63;0.63;;;2.40;95.20;;;;;;5095747;28;20047;-83
2021/03/14 04:56:46;;;;;;;0.80;0.80;;;2.50;94.80;;;;;;5113893;28;20051;-83
2021/03/14 04:59:14;;;;;;;0.73;0.73;;;2.50;94.80;;;;;;5114251;28;20047;-82
2021/03/14 05:01:45;;;;;;;1.58;0.75;;;2.50;94.70;;;;;;5114531;28;20047;-83
2021/03/14 05:04:19;;;;;;;0.90;0.90;;;2.50;95.00;;;;;;5113604;28;20481;-80
2021/03/14 05:06:47;;;;;;;0.80;0.80;;;2.60;94.60;;;;;;5113909;28;20047;-82
2021/03/14 05:09:15;;;;;;;1.27;0.88;;;2.60;94.90;;;;;;5114478;28;20047;-83
2021/03/14 05:11:48;;;;;;;0.77;0.77;;;2.50;95.40;;;;;;5113111;28;20396;-80
2021/03/14 05:14:16;;;;;;;0.80;0.80;;;2.50;95.40;;;;;;5113551;28;20049;-80
2021/03/14 05:16:49;;;;;;;0.88;0.88;;;2.40;95.30;;;;;;5114297;28;20507;-79
2021/03/14 05:19:17;;;;;;;0.80;0.80;;;2.50;95.60;;;;;;5114025;28;20051;-80
2021/03/14 05:22:02;;;;;;;0.63;0.63;;;2.40;96.00;;;;;;5112783;28;20043;-80
2021/03/14 05:24:30;;;;;;;0.77;0.77;;;2.40;95.80;;;;;;5111294;28;20054;-80
2021/03/14 05:27:01;;;;;;;0.90;0.90;;;2.20;95.30;;;;;;5112222;28;20036;-80
2021/03/14 05:29:29;;;;;;;1.00;1.00;;;1.90;96.10;;;;;;5096057;28;20433;-80
2021/03/14 05:31:57;;;;;;;0.82;0.82;;;1.60;96.40;;;;;;5113222;28;20046;-79
2021/03/14 05:34:25;;;;;;;0.77;0.77;;;1.50;96.50;;;;;;5113308;28;20046;-81
2021/03/14 05:36:53;;;;;;;0.98;0.98;;;1.50;96.70;;;;;;5095600;28;20040;-78
2021/03/14 05:39:20;;;;;;;1.08;0.98;;;1.40;97.10;;;;;;5095392;28;20054;-80
2021/03/14 05:41:48;;;;;;;1.15;1.10;;;1.30;97.50;;;;;;5113371;28;20055;-80
2021/03/14 05:44:16;;;;;;;1.33;1.23;;;1.20;97.60;;;;;;5112616;28;20051;-80
2021/03/14 05:46:43;;;;;;;0.80;0.80;;;1.20;97.50;;;;;;5112683;28;20047;-79
2021/03/14 05:49:11;;;;;;;1.02;1.02;;;1.20;97.70;;;;;;5112733;28;20067;-81
2021/03/14 05:51:51;;;;;;;1.10;1.10;;;1.20;97.50;;;;;;5111981;28;20404;-79
2021/03/14 05:54:20;;;;;;;0.90;0.90;;;1.20;97.90;;;;;;5112944;28;20050;-81
2021/03/14 05:56:49;;;;;;;0.90;0.90;;;1.10;97.90;;;;;;5113337;28;20052;-79
2021/03/14 05:59:18;;;;;;;1.00;1.00;;;1.20;98.00;;;;;;5094549;28;20046;-79
2021/03/14 06:01:48;;;;;;;1.33;1.30;;;1.00;97.80;;;;;;5113370;28;20059;-81
2021/03/14 06:04:17;;;;;;;1.20;1.20;;;1.10;97.70;;;;;;5112853;28;20392;-78
2021/03/14 06:06:49;;;;;;;1.05;1.05;;;1.00;97.50;;;;;;5110295;28;20051;-79
2021/03/14 06:09:17;;;;;;;1.92;1.55;;;1.10;97.20;;;;;;5094730;28;20058;-79
2021/03/14 06:11:44;;;;;;;0.90;0.90;;;1.10;97.70;;;;;;5094363;28;20047;-80
2021/03/14 06:14:13;;;;;;;1.00;1.00;;;1.10;97.50;;;;;;5112555;28;20686;-79
2021/03/14 06:16:41;;;;;;;0.80;0.80;;;1.10;97.80;;;;;;5113523;28;20056;-81
2021/03/14 06:19:10;;;;;;;0.90;0.90;;;1.20;98.00;;;;;;5113070;28;20488;-79
2021/03/14 06:21:38;;;;;;;1.00;1.00;;;1.20;98.00;;;;;;5111588;28;20547;-79
2021/03/14 06:24:08;;;;;;;2.15;1.02;;;1.20;97.90;;;;;;5112953;28;20424;-78
2021/03/14 06:26:38;;;;;;;0.90;0.90;;;1.20;98.00;;;;;;5112443;28;20484;-80
2021/03/14 06:29:18;;;;;;;2.33;1.38;;;1.30;98.00;;;;;;5112015;28;20055;-80
2021/03/14 06:31:47;;;;;;;1.55;1.45;;;1.30;97.80;;;;;;5091933;28;20044;-80
2021/03/14 06:34:24;;;;;;;1.42;1.33;;;1.30;98.00;;;;;;5101984;28;20067;-79
2021/03/14 06:36:52;;;;;;;1.15;1.15;;;1.30;97.60;;;;;;5091254;28;20055;-81
2021/03/14 06:39:28;;;;;;;1.23;1.23;;;1.40;97.40;;;;;;5110293;28;20037;-80
2021/03/14 06:41:56;;;;;;;1.13;1.13;;;1.40;97.20;;;;;;5110548;28;20401;-79
2021/03/14 06:44:44;;;;;;;1.77;1.48;;;1.40;96.90;;;;;;5116140;28;20063;-79
2021/03/14 06:47:12;;;;;;;1.30;1.30;;;1.50;96.40;;;;;;5116153;28;20043;-80
2021/03/14 06:49:40;;;;;;;3.00;1.23;;;1.50;96.80;;;;;;5115883;28;20055;-79
2021/03/14 06:52:08;;;;;;;1.13;1.13;;;1.50;96.30;;;;;;5115295;28;20628;-80
2021/03/14 06:54:40;;;;;;;1.08;1.08;;;1.50;96.80;;;;;;5115566;28;20484;-79
2021/03/14 06:57:11;;;;;;;1.05;1.05;;;1.60;96.70;;;;;;5096273;28;20048;-80
2021/03/14 06:59:44;;;;;;;1.07;1.07;;;1.60;96.70;;;;;;5077778;28;20055;-79
2021/03/14 07:02:31;;;;;;;1.45;1.40;;;1.60;96.50;;;;;;5085953;28;20035;-79
2021/03/14 07:05:00;;;;;;;1.10;1.10;;;1.60;96.30;;;;;;5117001;28;20522;-81
2021/03/14 07:07:32;;;;;;;0.95;0.95;;;1.70;96.30;;;;;;5115866;28;20423;-80
2021/03/14 07:10:08;;;;;;;2.45;2.13;;;1.70;96.60;;;;;;5115614;28;20051;-80
2021/03/14 07:12:43;;;;;;;2.40;1.40;;;1.70;96.10;;;;;;5116135;28;20062;-80
2021/03/14 07:15:15;;;;;;;1.00;1.00;;;1.80;96.10;;;;;;5118843;28;20488;-80
2021/03/14 07:17:54;;;;;;;1.20;1.20;;;1.80;96.30;;;;;;5116001;28;20056;-79
2021/03/14 07:20:29;;;;;;;0.93;0.93;;;1.90;95.60;;;;;;5113841;28;20051;-80
2021/03/14 07:23:08;;;;;;;1.20;1.05;;;2.00;96.40;;;;;;5115773;28;20047;-79
2021/03/14 07:25:42;;;;;;;1.08;1.08;;;2.00;96.30;;;;;;5115838;28;20048;-79
2021/03/14 07:28:11;;;;;;;1.45;1.10;;;2.00;95.60;;;;;;5096909;28;20059;-80
2021/03/14 07:30:39;;;;;;;1.00;0.85;;;2.00;96.10;;;;;;5115611;28;20063;-80
2021/03/14 07:33:06;;;;;;;1.15;1.08;;;2.00;96.20;;;;;;5116177;28;20427;-80
2021/03/14 07:35:35;;;;;;;1.05;1.00;;;2.00;96.40;;;;;;5097669;28;20496;-80
2021/03/14 07:38:03;;;;;;;0.98;0.98;;;2.00;96.20;;;;;;5114346;28;20048;-80
2021/03/14 07:40:30;;;;;;;1.00;1.00;;;2.00;96.70;;;;;;5097799;28;20378;-80
2021/03/14 07:43:02;;;;;;;0.90;0.90;;;2.10;96.70;;;;;;5113817;28;20048;-80
2021/03/14 07:46:02;;;;;;;1.20;1.10;;;2.00;96.50;;;;;;5116056;28;20052;-81
2021/03/14 07:48:31;;;;;;;1.88;1.77;;;1.80;96.10;;;;;;5097133;28;20058;-80
2021/03/14 07:50:58;;;;;;;1.02;0.90;;;1.80;97.20;;;;;;5114310;28;20046;-81
2021/03/14 07:53:30;;;;;;;2.00;1.00;;;1.80;96.70;;;;;;5113817;28;20063;-81
2021/03/14 07:55:59;;;;;;;0.90;0.90;;;1.70;96.50;;;;;;5114379;28;20511;-80
2021/03/14 07:58:26;;;;;;;0.80;0.80;;;1.80;96.50;;;;;;5107482;28;20039;-82
2021/03/14 08:00:56;;;;;;;0.80;0.80;;;1.80;97.00;;;;;;5115773;28;20381;-81
2021/03/14 08:03:52;;;;;;;0.82;0.82;;;1.90;96.60;;;;;;5114319;28;20051;-80
2021/03/14 08:06:41;;;;;;;1.25;1.02;;;1.80;96.90;;;;;;5113481;28;20054;-79
2021/03/14 08:09:09;;;;;;;1.10;1.10;;;1.70;96.90;;;;;;5112878;28;20043;-80
2021/03/14 08:11:36;;;;;;;1.85;1.50;;;1.70;97.20;;;;;;5114730;28;20403;-81
2021/03/14 08:14:08;;;;;;;1.20;1.10;;;1.70;97.40;;;;;;5080215;28;20043;-80
2021/03/14 08:16:35;;;;;;;1.10;1.10;;;1.80;97.20;;;;;;5094998;28;20874;-82
2021/03/14 08:19:13;;;;;;;1.00;1.00;;;1.90;97.60;;;;;;5105229;28;20040;-80
2021/03/14 08:21:41;;;;;;;1.25;1.15;;;1.80;95.70;;;;;;5114031;28;20047;-80
2021/03/14 08:24:16;;;;;;;0.90;0.90;;;1.80;96.60;;;;;;5077581;28;20052;-82
2021/03/14 08:26:44;;;;;;;0.88;0.88;;;1.80;96.60;;;;;;5075717;28;20040;-81
2021/03/14 08:29:17;;;;;;;1.10;1.02;;;1.80;96.40;;;;;;5076574;28;20075;-81
2021/03/14 08:31:54;;;;;;;1.10;1.00;;;1.70;96.10;;;;;;5075902;28;20496;-79
2021/03/14 08:34:32;;;;;;;0.80;0.80;;;1.80;96.90;;;;;;5094052;28;20484;-79
2021/03/14 08:37:24;;;;;;;1.08;0.93;;;1.70;95.90;;;;;;5092988;28;20091;-80
2021/03/14 08:40:04;;;;;;;1.33;1.30;;;1.80;96.30;;;;;;5095422;28;20040;-82
2021/03/14 08:42:55;;;;;;;1.08;1.08;;;1.80;96.10;;;;;;5113397;28;20051;-79
2021/03/14 08:45:47;;;;;;;1.08;1.08;;;1.80;96.30;;;;;;5112567;28;20392;-80
2021/03/14 08:48:30;;;;;;;3.90;1.05;;;1.70;96.30;;;;;;5088413;28;20040;-80
2021/03/14 08:50:58;;;;;;;1.35;1.25;;;1.80;95.90;;;;;;5071057;28;20037;-79
2021/03/14 08:53:41;;;;;;;1.42;1.33;;;1.80;95.70;;;;;;5072135;28;20053;-79
2021/03/14 08:56:19;;;;;;;1.33;1.20;;;1.80;95.00;;;;;;5071871;28;20067;-80
2021/03/14 08:59:10;;;;;;;1.80;1.70;;;1.90;95.70;;;;;;5072012;28;20040;-80
2021/03/14 09:01:43;;;;;;;1.25;1.20;;;1.70;96.10;;;;;;5072344;28;20059;-79
2021/03/14 09:04:32;;;;;;;1.55;1.17;;;1.70;95.50;;;;;;5058443;28;20539;-80
2021/03/14 09:07:12;;;;;;;1.13;1.10;;;1.70;95.40;;;;;;5067407;28;20049;-80
2021/03/14 09:09:43;;;;;;;1.40;1.30;;;1.50;96.00;;;;;;5076919;28;20057;-83
2021/03/14 09:12:37;;;;;;;1.48;1.10;;;1.60;96.80;;;;;;5047762;28;20126;-78
2021/03/14 09:15:20;;;;;;;2.00;1.90;;;1.70;95.80;;;;;;5070451;28;20052;-80
2021/03/14 09:18:24;;;;;;;1.08;1.08;;;1.70;96.60;;;;;;5041733;28;20479;-81
2021/03/14 09:21:01;;;;;;;2.85;1.33;;;1.60;96.80;;;;;;5050883;28;20045;-79
2021/03/14 09:23:41;;;;;;;1.95;1.85;;;1.60;96.60;;;;;;5060475;28;20051;-81
2021/03/14 09:26:11;;;;;;;1.40;1.30;;;1.80;96.10;;;;;;5088265;28;20397;-86
2021/03/14 09:28:44;;;;;;;1.50;1.40;;;1.80;96.90;;;;;;5072104;28;20079;-79
2021/03/14 09:31:16;;;;;;;3.45;1.40;;;1.90;96.50;;;;;;5087749;28;20044;-83
2021/03/14 09:33:53;;;;;;;1.73;1.63;;;2.00;96.90;;;;;;5071168;28;20053;-84
2021/03/14 09:36:26;;;;;;;1.40;1.40;;;2.20;95.10;;;;;;5068359;28;20041;-83
2021/03/14 09:38:59;;;;;;;1.77;1.67;;;2.10;95.00;;;;;;5051614;28;20087;-81
2021/03/14 09:41:50;;;;;;;4.00;1.88;;;2.20;95.20;;;;;;5069214;28;20048;-82
2021/03/14 09:45:02;;;;;;;3.30;2.22;;;2.40;96.40;;;;;;5066527;28;20044;-85
2021/03/14 09:47:29;;;;;;;2.25;1.73;;;2.40;94.70;;;;;;5077442;28;20041;-84
2021/03/14 09:50:13;;;;;;;1.90;1.80;;;2.40;94.60;;;;;;5055251;28;20045;-81
2021/03/14 09:52:47;;;;;;;1.90;1.80;;;2.50;93.90;;;;;;5054626;28;20078;-83
2021/03/14 09:55:27;;;;;;;3.75;2.25;;;2.60;93.50;;;;;;5087619;28;20049;-81
2021/03/14 09:57:56;;;;;;;4.40;1.77;;;2.60;93.70;;;;;;5071273;28;20044;-82
2021/03/14 10:00:31;;;;;;;3.42;2.00;;;2.70;94.70;;;;;;5054991;28;20067;-81
2021/03/14 10:03:08;;;;;;;2.05;1.88;;;2.70;93.60;;;;;;5049843;28;20044;-78
2021/03/14 10:06:01;;;;;;;2.72;2.28;;;2.70;94.20;;;;;;5063046;28;20049;-77
2021/03/14 10:08:39;;;;;;;1.70;1.60;;;3.00;93.00;;;;;;5069610;28;20048;-78
2021/03/14 10:11:13;;;;;;;10.27;2.05;;;2.90;94.00;;;;;;5066086;28;20048;-78
2021/03/14 10:13:47;;;;;;;2.63;1.55;;;3.00;92.30;;;;;;5068785;28;20451;-78
2021/03/14 10:16:17;;;;;;;2.97;1.40;;;3.10;92.50;;;;;;5052554;28;20048;-78
2021/03/14 10:18:47;;;;;;;1.70;1.55;;;3.40;91.30;;;;;;5066295;28;20052;-78
2021/03/14 10:21:25;;;;;;;1.58;1.48;;;3.30;91.00;;;;;;5069793;28;20049;-77
2021/03/14 10:24:24;;;;;;;4.72;1.95;;;3.30;90.90;;;;;;5087138;28;20484;-80
2021/03/14 10:27:11;;;;;;;1.92;1.83;;;3.30;92.50;;;;;;5069951;28;20063;-78
2021/03/14 10:29:58;;;;;;;2.45;1.65;;;3.60;92.10;;;;;;5053962;28;20060;-80
2021/03/14 10:33:05;;;;;;;2.53;2.33;;;3.40;92.20;;;;;;5054717;28;20052;-79
2021/03/14 10:35:37;;;;;;;2.67;1.88;;;3.10;91.90;;;;;;5070281;28;20055;-79
2021/03/14 10:38:14;;;;;;;2.28;2.08;;;3.20;91.80;;;;;;5069910;28;20048;-79
2021/03/14 10:40:42;;;;;;;2.30;2.20;;;3.10;91.40;;;;;;5053306;28;20044;-78
2021/03/14 10:43:20;;;;;;;3.85;1.95;;;3.10;91.70;;;;;;5070281;28;20245;-81
2021/03/14 10:45:55;;;;;;;3.33;2.42;;;3.10;90.20;;;;;;5049059;28;20053;-78
2021/03/14 10:48:27;;;;;;;2.13;1.80;;;3.20;90.40;;;;;;5080999;28;20064;-80
2021/03/14 10:51:00;;;;;;;2.28;1.30;;;3.40;91.00;;;;;;5083021;28;20047;-83
2021/03/14 10:53:28;;;;;;;1.63;1.52;;;3.30;90.30;;;;;;5089441;28;20044;-81
2021/03/14 10:56:31;;;;;;;1.90;1.80;;;3.10;91.60;;;;;;5072548;28;20041;-80
2021/03/14 10:58:58;;;;;;;8.82;2.25;;;2.30;92.50;;;;;;5072549;28;20561;-79
2021/03/14 11:01:53;;;;;;;2.45;1.63;;;2.20;92.90;;;;;;5089781;28;20062;-79
2021/03/14 11:04:30;;;;;;;3.00;2.03;;;2.40;91.90;;;;;;5072746;28;20056;-83
2021/03/14 11:07:30;;;;;;;3.67;1.92;;;2.70;91.80;;;;;;5072949;28;20041;-81
2021/03/14 11:10:17;;;;;;;2.10;1.23;;;2.90;91.60;;;;;;5088172;28;20037;-79
2021/03/14 11:12:55;;;;;;;1.48;1.38;;;2.90;90.90;;;;;;5086010;28;20052;-83
2021/03/14 11:15:34;;;;;;;2.33;1.20;;;3.10;90.20;;;;;;5053572;28;20041;-83
2021/03/14 11:18:07;;;;;;;3.60;1.42;;;2.90;87.50;;;;;;5102951;28;20056;-81
2021/03/14 11:20:56;;;;;;;1.70;1.55;;;2.80;88.90;;;;;;5069239;28;20621;-80
2021/03/14 11:23:24;;;;;;;1.45;1.38;;;2.80;88.10;;;;;;5093778;28;20048;-80
2021/03/14 11:25:52;;;;;;;2.42;2.08;;;2.90;89.30;;;;;;5092872;28;20044;-80
2021/03/14 11:28:22;;;;;;;1.55;1.45;;;3.00;91.70;;;;;;5093721;28;20048;-81
2021/03/14 11:30:50;;;;;;;2.42;1.38;;;3.30;88.50;;;;;;5062748;28;20024;-80
2021/03/14 11:33:18;;;;;;;4.28;1.48;;;3.50;91.10;;;;;;5074119;28;20052;-81
2021/03/14 11:35:55;;;;;;;1.67;1.58;;;3.60;88.80;;;;;;5088615;28;20040;-78
2021/03/14 11:38:46;;;;;;;1.65;1.55;;;3.70;88.60;;;;;;5058061;28;20052;-79
2021/03/14 11:41:45;;;;;;;1.52;1.30;;;3.70;87.90;;;;;;5058530;28;20481;-77
2021/03/14 11:44:28;;;;;;;2.95;1.75;;;3.60;87.10;;;;;;5074444;28;20070;-78
2021/03/14 11:46:56;;;;;;;1.48;1.38;;;3.70;87.70;;;;;;5099577;28;20047;-78
2021/03/14 11:49:44;;;;;;;1.52;1.42;;;3.70;87.40;;;;;;5094058;28;20060;-78
2021/03/14 11:52:12;;;;;;;15.20;2.22;;;3.60;89.30;;;;;;5099388;28;20043;-79
2021/03/14 11:54:43;;;;;;;1.60;1.50;;;3.70;84.30;;;;;;5090088;28;20036;-79
2021/03/14 11:57:11;;;;;;;2.17;1.50;;;3.80;90.20;;;;;;5096925;28;20039;-80
2021/03/14 11:59:44;;;;;;;2.60;1.38;;;3.60;84.40;;;;;;5113975;28;20048;-79
2021/03/14 12:02:13;;;;;;;2.90;2.40;;;3.50;87.80;;;;;;5113312;28;20051;-80
2021/03/14 12:04:56;;;;;;;1.65;1.55;;;3.40;85.00;;;;;;5097259;28;20461;-79
2021/03/14 12:07:25;;;;;;;7.60;1.75;;;3.30;84.30;;;;;;5096352;28;20036;-78
2021/03/14 12:09:54;;;;;;;5.60;3.88;;;3.40;86.20;;;;;;5092114;28;20056;-79
2021/03/14 12:12:22;;;;;;;3.47;1.98;;;3.50;84.30;;;;;;5100124;28;20046;-78
2021/03/14 12:14:58;;;;;;;1.70;1.15;;;3.70;86.20;;;;;;5096387;28;20681;-79
2021/03/14 12:17:38;;;;;;;1.65;1.55;;;3.70;85.50;;;;;;5096822;28;20048;-79
2021/03/14 12:20:23;;;;;;;1.35;1.30;;;3.90;82.10;;;;;;5095792;28;20039;-80
2021/03/14 12:22:58;;;;;;;3.25;1.90;;;4.00;83.50;;;;;;5113989;28;20384;-78
2021/03/14 12:25:28;;;;;;;2.50;1.30;;;4.10;80.50;;;;;;5113804;28;20048;-80
2021/03/14 12:27:58;;;;;;;4.63;1.50;;;4.10;81.50;;;;;;5113115;28;20070;-81
2021/03/14 12:30:27;;;;;;;1.75;1.65;;;3.80;81.10;;;;;;5096639;28;20040;-81
2021/03/14 12:32:54;;;;;;;2.47;1.73;;;3.80;81.80;;;;;;5096213;28;20484;-79
2021/03/14 12:35:27;;;;;;;1.60;1.50;;;3.80;82.30;;;;;;5095261;28;20039;-86
2021/03/14 12:38:00;;;;;;;1.65;1.45;;;3.90;82.00;;;;;;5079258;28;20388;-87
2021/03/14 12:40:50;;;;;;;1.40;1.20;;;3.90;83.40;;;;;;5127631;27;20115;-80
2021/03/14 12:43:19;;;;;;;2.75;1.50;;;3.70;85.70;;;;;;5076848;28;20036;-83
2021/03/14 12:46:27;;;;;;;1.60;1.50;;;3.30;85.80;;;;;;5069622;28;20052;-84
2021/03/14 12:48:54;;;;;;;5.50;1.92;;;2.80;83.90;;;;;;5051730;28;20525;-82
2021/03/14 12:51:23;;;;;;;9.60;2.42;;;2.50;86.60;;;;;;5068306;28;20037;-82
2021/03/14 12:53:52;;;;;;;1.50;1.40;;;2.20;90.50;;;;;;5065219;28;20045;-82
2021/03/14 12:56:20;;;;;;;1.85;1.27;;;2.10;91.10;;;;;;5068277;28;20048;-82
2021/03/14 12:59:00;;;;;;;1.38;1.27;;;2.10;90.80;;;;;;5085928;28;20512;-83
2021/03/14 13:01:30;;;;;;;;;;;2.30;90.80;;;;;;5069421;28;20052;-82
2021/03/14 13:03:57;;;;;;;1.65;1.52;;;2.40;90.30;;;;;;5068911;27;20374;-86
2021/03/14 13:06:27;;;;;;;1.75;1.60;;;2.50;90.20;;;;;;5069793;27;20041;-84
2021/03/14 13:08:54;;;;;;;1.77;1.52;;;2.60;90.00;;;;;;5059042;28;20054;-84
2021/03/14 13:11:22;;;;;;;2.30;2.10;;;2.70;89.20;;;;;;5064509;28;20048;-85
2021/03/14 13:14:21;;;;;;;2.78;1.70;;;2.80;90.20;;;;;;5069605;28;20056;-85
2021/03/14 13:16:52;;;;;;;;;;;3.00;88.90;;;;;;5070032;28;20053;-84
2021/03/14 13:19:20;;;;;;;2.80;1.83;;;3.40;88.60;;;;;;5099542;27;19921;-86
2021/03/14 13:21:50;;;;;;;6.25;1.67;;;3.30;83.90;;;;;;5058250;28;20041;-85
2021/03/14 13:24:18;;;;;;;5.70;1.73;;;3.00;87.10;;;;;;5067923;28;20068;-85
2021/03/14 13:26:45;;;;;;;1.73;1.38;;;3.10;90.00;;;;;;5051747;28;20521;-86
2021/03/14 13:29:12;;;;;;;1.85;1.75;;;3.30;90.70;;;;;;5058634;28;20076;-86
2021/03/14 13:31:40;;;;;;;4.63;1.33;;;3.50;89.10;;;;;;5064077;28;20045;-85